createdAt,value
2023-04-29T00:01:52.560Z,63.76
2023-04-29T00:04:18.859Z,63.85
2023-04-29T00:06:45.159Z,63.83
2023-04-29T00:09:11.282Z,63.61
2023-04-29T00:11:37.374Z,63.89
2023-04-29T00:14:03.472Z,63.76
2023-04-29T00:16:29.630Z,63.76
2023-04-29T00:18:55.749Z,63.82
2023-04-29T00:21:21.845Z,63.66
2023-04-29T00:23:47.981Z,63.97
2023-04-29T00:26:14.088Z,63.59
2023-04-29T00:28:40.188Z,63.65
2023-04-29T00:31:06.319Z,63.73
2023-04-29T00:33:32.449Z,63.74
2023-04-29T00:35:58.547Z,63.63
2023-04-29T00:38:24.656Z,63.55
2023-04-29T00:40:50.762Z,63.83
2023-04-29T00:43:16.874Z,63.39
2023-04-29T00:45:43.067Z,63.68
2023-04-29T00:48:09.251Z,63.69
2023-04-29T00:50:35.397Z,63.64
2023-04-29T00:53:01.537Z,63.62
2023-04-29T00:55:27.655Z,63.63
2023-04-29T00:57:53.763Z,63.61
2023-04-29T01:00:19.882Z,63.76
2023-04-29T01:02:46.104Z,63.60
2023-04-29T01:05:12.241Z,63.62
2023-04-29T01:07:38.345Z,63.56
2023-04-29T01:10:04.426Z,63.71
2023-04-29T01:12:30.535Z,63.59
2023-04-29T01:14:56.650Z,63.82
2023-04-29T01:17:22.748Z,63.61
2023-04-29T01:19:48.845Z,63.62
2023-04-29T01:22:15.045Z,63.58
2023-04-29T01:24:41.140Z,63.58
2023-04-29T01:27:07.235Z,63.59
2023-04-29T01:29:33.345Z,63.53
2023-04-29T01:31:59.494Z,63.51
2023-04-29T01:34:25.609Z,63.54
2023-04-29T01:36:51.762Z,63.61
2023-04-29T01:39:17.893Z,63.67
2023-04-29T01:41:44.118Z,63.71
2023-04-29T01:44:12.760Z,63.79
2023-04-29T01:46:38.903Z,63.62
2023-04-29T01:49:05.158Z,63.67
2023-04-29T01:51:31.512Z,63.53
2023-04-29T01:53:57.612Z,63.54
2023-04-29T01:56:23.696Z,63.52
2023-04-29T01:58:49.836Z,63.64
2023-04-29T02:01:15.974Z,63.52
2023-04-29T02:03:42.140Z,63.57
2023-04-29T02:06:08.378Z,63.64
2023-04-29T02:08:34.499Z,63.61
2023-04-29T02:11:00.610Z,63.48
2023-04-29T02:13:26.768Z,63.50
2023-04-29T02:15:52.885Z,63.48
2023-04-29T02:18:19.007Z,63.64
2023-04-29T02:20:45.109Z,63.46
2023-04-29T02:23:11.398Z,63.71
2023-04-29T02:25:37.833Z,63.44
2023-04-29T02:28:04.838Z,63.48
2023-04-29T02:30:31.437Z,63.56
2023-04-29T02:32:57.714Z,63.46
2023-04-29T02:35:23.978Z,63.53
2023-04-29T02:37:50.363Z,63.66
2023-04-29T02:40:17.391Z,63.58
2023-04-29T02:42:44.255Z,63.69
2023-04-29T02:45:10.561Z,63.42
2023-04-29T02:47:36.798Z,63.52
2023-04-29T02:50:03.227Z,63.45
2023-04-29T02:52:29.451Z,63.63
2023-04-29T02:54:55.638Z,63.44
2023-04-29T02:57:21.832Z,63.82
2023-04-29T02:59:48.098Z,63.43
2023-04-29T03:02:14.276Z,63.66
2023-04-29T03:04:40.618Z,63.41
2023-04-29T03:07:06.957Z,63.38
2023-04-29T03:09:33.204Z,63.44
2023-04-29T03:11:59.742Z,63.48
2023-04-29T03:14:27.214Z,63.46
2023-04-29T03:16:53.347Z,63.56
2023-04-29T03:19:19.488Z,63.49
2023-04-29T03:21:45.577Z,63.49
2023-04-29T03:24:11.669Z,63.44
2023-04-29T03:26:37.781Z,63.44
2023-04-29T03:29:03.884Z,63.43
2023-04-29T03:31:30.063Z,63.40
2023-04-29T03:33:56.263Z,63.56
2023-04-29T03:36:22.350Z,63.62
2023-04-29T03:38:48.461Z,63.47
2023-04-29T03:41:14.581Z,63.53
2023-04-29T03:43:40.685Z,63.46
2023-04-29T03:46:06.825Z,63.39
2023-04-29T03:48:32.971Z,63.37
2023-04-29T03:50:59.091Z,63.61
2023-04-29T03:53:25.222Z,63.51
2023-04-29T03:55:51.345Z,63.55
2023-04-29T03:58:17.482Z,63.47
2023-04-29T04:00:43.567Z,63.43
2023-04-29T04:03:09.751Z,63.25
2023-04-29T04:05:35.920Z,63.52
2023-04-29T04:08:02.016Z,63.40
2023-04-29T04:10:28.136Z,63.42
2023-04-29T04:12:54.237Z,63.33
2023-04-29T04:15:20.344Z,63.47
2023-04-29T04:17:46.482Z,63.39
2023-04-29T04:20:12.591Z,63.46
2023-04-29T04:22:38.705Z,63.44
2023-04-29T04:25:04.842Z,63.53
2023-04-29T04:27:30.935Z,63.54
2023-04-29T04:29:57.027Z,63.33
2023-04-29T04:32:23.157Z,63.28
2023-04-29T04:34:49.265Z,63.03
2023-04-29T04:37:15.374Z,63.22
2023-04-29T04:39:41.499Z,63.42
2023-04-29T04:42:07.623Z,63.46
2023-04-29T04:44:33.775Z,63.61
2023-04-29T04:46:59.944Z,63.36
2023-04-29T04:49:26.072Z,63.42
2023-04-29T04:51:52.175Z,63.47
2023-04-29T04:54:18.283Z,63.39
2023-04-29T04:56:44.393Z,63.40
2023-04-29T04:59:10.490Z,63.37
2023-04-29T05:01:37.100Z,63.24
2023-04-29T05:04:03.369Z,63.38
2023-04-29T05:06:29.596Z,63.54
2023-04-29T05:08:55.694Z,63.41
2023-04-29T05:11:21.778Z,63.43
2023-04-29T05:13:47.878Z,63.32
2023-04-29T05:16:14.053Z,63.33
2023-04-29T05:18:40.156Z,63.46
2023-04-29T05:21:06.246Z,63.44
2023-04-29T05:23:32.363Z,63.77
2023-04-29T05:25:58.463Z,63.38
2023-04-29T05:28:26.051Z,63.50
2023-04-29T05:30:53.732Z,63.34
2023-04-29T05:33:19.867Z,63.34
2023-04-29T05:35:45.970Z,63.35
2023-04-29T05:38:12.116Z,63.42
2023-04-29T05:40:38.557Z,63.48
2023-04-29T05:43:04.672Z,63.47
2023-04-29T05:45:31.132Z,63.35
2023-04-29T05:47:57.273Z,63.51
2023-04-29T05:50:23.438Z,63.40
2023-04-29T05:52:49.584Z,63.38
2023-04-29T05:55:15.685Z,63.42
2023-04-29T05:57:41.781Z,63.41
2023-04-29T06:00:07.954Z,63.42
2023-04-29T06:02:37.368Z,63.38
2023-04-29T06:05:05.641Z,63.50
2023-04-29T06:07:32.116Z,63.44
2023-04-29T06:09:58.232Z,63.42
2023-04-29T06:12:24.340Z,63.48
2023-04-29T06:14:50.490Z,63.44
2023-04-29T06:17:16.589Z,63.54
2023-04-29T06:19:42.748Z,63.37
2023-04-29T06:22:08.913Z,63.42
2023-04-29T06:24:35.011Z,63.48
2023-04-29T06:27:01.113Z,63.65
2023-04-29T06:29:27.224Z,63.61
2023-04-29T06:31:53.388Z,63.40
2023-04-29T06:34:19.501Z,63.59
2023-04-29T06:36:45.610Z,63.61
2023-04-29T06:39:11.713Z,63.48
2023-04-29T06:41:37.801Z,63.49
2023-04-29T06:44:03.950Z,63.30
2023-04-29T06:46:36.310Z,63.33
2023-04-29T06:49:02.794Z,63.61
2023-04-29T06:51:29.161Z,63.44
2023-04-29T06:53:55.393Z,63.42
2023-04-29T06:56:21.624Z,63.41
2023-04-29T06:58:47.742Z,63.40
2023-04-29T07:01:13.865Z,63.66
2023-04-29T07:03:40.122Z,63.46
2023-04-29T07:06:06.542Z,63.31
2023-04-29T07:08:32.670Z,63.39
2023-04-29T07:10:58.812Z,63.41
2023-04-29T07:13:24.966Z,63.66
2023-04-29T07:15:51.057Z,63.53
2023-04-29T07:18:17.167Z,63.49
2023-04-29T07:20:43.289Z,63.53
2023-04-29T07:23:09.379Z,63.85
2023-04-29T07:25:35.499Z,63.49
2023-04-29T07:28:01.635Z,63.58
2023-04-29T07:30:27.749Z,63.50
2023-04-29T07:32:53.879Z,63.65
2023-04-29T07:35:20.150Z,63.49
2023-04-29T07:37:46.231Z,63.51
2023-04-29T07:40:12.329Z,63.68
2023-04-29T07:42:38.462Z,63.49
2023-04-29T07:45:04.566Z,63.60
2023-04-29T07:47:30.681Z,63.50
2023-04-29T07:49:56.798Z,63.63
2023-04-29T07:52:22.893Z,63.50
2023-04-29T07:54:48.986Z,63.50
2023-04-29T07:57:15.922Z,63.47
2023-04-29T07:59:42.023Z,63.50
2023-04-29T08:02:08.129Z,63.48
2023-04-29T08:04:34.468Z,63.50
2023-04-29T08:07:00.734Z,63.62
2023-04-29T08:09:26.819Z,63.53
2023-04-29T08:11:53.152Z,63.61
2023-04-29T08:14:19.252Z,63.52
2023-04-29T08:16:45.402Z,63.59
2023-04-29T08:19:11.562Z,63.47
2023-04-29T08:21:37.665Z,63.63
2023-04-29T08:24:03.771Z,63.64
2023-04-29T08:26:29.933Z,63.53
2023-04-29T08:28:56.040Z,63.50
2023-04-29T08:31:22.159Z,63.66
2023-04-29T08:33:48.303Z,63.62
2023-04-29T08:36:14.398Z,63.48
2023-04-29T08:38:40.495Z,63.51
2023-04-29T08:41:06.609Z,63.55
2023-04-29T08:43:32.700Z,63.53
2023-04-29T08:45:58.828Z,63.49
2023-04-29T08:48:25.039Z,63.59
2023-04-29T08:50:51.396Z,63.48
2023-04-29T08:53:17.811Z,63.54
2023-04-29T08:55:44.163Z,63.43
2023-04-29T08:58:10.469Z,63.52
2023-04-29T09:00:36.564Z,63.67
2023-04-29T09:03:02.846Z,63.64
2023-04-29T09:05:29.000Z,63.50
2023-04-29T09:07:55.104Z,63.43
2023-04-29T09:10:21.294Z,63.54
2023-04-29T09:12:47.416Z,63.58
2023-04-29T09:15:13.538Z,63.57
2023-04-29T09:17:39.709Z,63.53
2023-04-29T09:20:05.838Z,63.52
2023-04-29T09:22:31.941Z,63.60
2023-04-29T09:24:58.043Z,63.53
2023-04-29T09:27:24.166Z,63.60
2023-04-29T09:29:50.383Z,63.63
2023-04-29T09:32:16.635Z,63.51
2023-04-29T09:34:42.756Z,63.76
2023-04-29T09:37:08.862Z,63.75
2023-04-29T09:39:34.972Z,63.62
2023-04-29T09:42:01.070Z,63.52
2023-04-29T09:44:27.187Z,63.57
2023-04-29T09:46:53.313Z,63.53
2023-04-29T09:49:19.404Z,63.55
2023-04-29T09:51:45.511Z,63.61
2023-04-29T09:54:11.625Z,63.62
2023-04-29T09:56:37.717Z,63.53
2023-04-29T09:59:03.845Z,63.71
2023-04-29T10:01:30.035Z,63.64
2023-04-29T10:03:56.297Z,63.54
2023-04-29T10:06:22.412Z,63.79
2023-04-29T10:08:48.533Z,63.45
2023-04-29T10:11:14.631Z,63.73
2023-04-29T10:13:40.909Z,63.67
2023-04-29T10:16:08.224Z,63.55
2023-04-29T10:18:34.551Z,63.75
2023-04-29T10:21:00.748Z,63.63
2023-04-29T10:23:26.897Z,63.69
2023-04-29T10:25:53.027Z,63.82
2023-04-29T10:28:19.139Z,63.78
2023-04-29T10:30:45.272Z,63.66
2023-04-29T10:33:11.429Z,63.86
2023-04-29T10:35:37.587Z,63.72
2023-04-29T10:38:03.728Z,63.80
2023-04-29T10:40:29.838Z,63.75
2023-04-29T10:42:55.935Z,63.93
2023-04-29T10:45:22.070Z,63.69
2023-04-29T10:47:48.229Z,63.75
2023-04-29T10:50:14.414Z,63.62
2023-04-29T10:52:40.592Z,63.72
2023-04-29T10:55:06.696Z,63.64
2023-04-29T10:57:32.818Z,63.82
2023-04-29T10:59:58.963Z,63.75
2023-04-29T11:02:25.140Z,63.75
2023-04-29T11:04:51.539Z,63.75
2023-04-29T11:07:18.075Z,63.76
2023-04-29T11:09:44.204Z,63.94
2023-04-29T11:12:10.312Z,63.91
2023-04-29T11:14:36.599Z,63.66
2023-04-29T11:17:02.863Z,63.85
2023-04-29T11:19:28.951Z,63.69
2023-04-29T11:21:55.064Z,63.76
2023-04-29T11:24:21.180Z,63.69
2023-04-29T11:26:47.307Z,63.80
2023-04-29T11:29:13.408Z,63.78
2023-04-29T11:31:39.654Z,63.78
2023-04-29T11:34:05.881Z,63.99
2023-04-29T11:36:32.057Z,63.72
2023-04-29T11:38:58.147Z,63.90
2023-04-29T11:41:24.246Z,63.80
2023-04-29T11:43:50.358Z,63.78
2023-04-29T11:46:16.448Z,63.74
2023-04-29T11:48:42.545Z,63.71
2023-04-29T11:51:08.654Z,63.86
2023-04-29T11:53:34.758Z,63.82
2023-04-29T11:56:00.856Z,64.07
2023-04-29T11:58:26.971Z,63.82
2023-04-29T12:00:53.069Z,63.71
2023-04-29T12:03:19.458Z,64.07
2023-04-29T12:05:45.849Z,64.09
2023-04-29T12:08:12.029Z,63.92
2023-04-29T12:10:38.133Z,63.65
2023-04-29T12:13:04.318Z,63.90
2023-04-29T12:15:30.494Z,63.69
2023-04-29T12:17:56.656Z,63.61
2023-04-29T12:20:22.844Z,63.91
2023-04-29T12:22:48.960Z,63.93
2023-04-29T12:25:15.053Z,63.78
2023-04-29T12:27:41.170Z,63.91
2023-04-29T12:30:07.268Z,63.77
2023-04-29T12:32:33.408Z,63.96
2023-04-29T12:34:59.530Z,63.71
2023-04-29T12:37:25.631Z,63.90
2023-04-29T12:39:51.741Z,63.84
2023-04-29T12:42:17.894Z,63.81
2023-04-29T12:44:44.099Z,63.73
2023-04-29T12:47:10.366Z,63.74
2023-04-29T12:49:36.552Z,63.90
2023-04-29T12:52:02.692Z,64.10
2023-04-29T12:54:28.802Z,63.91
2023-04-29T12:56:54.930Z,63.83
2023-04-29T12:59:21.231Z,63.72
2023-04-29T13:01:47.425Z,63.93
2023-04-29T13:04:13.712Z,63.84
2023-04-29T13:06:39.892Z,63.83
2023-04-29T13:09:06.004Z,63.85
2023-04-29T13:11:34.521Z,63.82
2023-04-29T13:14:00.997Z,63.75
2023-04-29T13:16:27.161Z,64.07
2023-04-29T13:19:08.153Z,63.74
2023-04-29T13:21:39.411Z,63.76
2023-04-29T13:24:05.552Z,63.95
2023-04-29T13:26:31.738Z,63.84
2023-04-29T13:28:57.924Z,63.75
2023-04-29T13:31:24.108Z,63.73
2023-04-29T13:33:53.652Z,63.73
2023-04-29T13:36:20.276Z,63.96
2023-04-29T13:38:48.607Z,63.71
2023-04-29T13:41:17.253Z,63.80
2023-04-29T13:43:44.181Z,63.95
2023-04-29T13:46:11.510Z,63.79
2023-04-29T13:51:46.106Z,63.81
2023-04-29T14:02:08.127Z,63.87
2023-04-29T14:04:06.091Z,63.82
2023-04-29T14:06:32.356Z,63.85
2023-04-29T14:08:58.477Z,63.79
2023-04-29T14:11:24.571Z,63.92
2023-04-29T14:13:50.688Z,63.86
2023-04-29T14:16:16.834Z,63.84
2023-04-29T14:18:42.992Z,63.93
2023-04-29T14:21:09.572Z,63.94
2023-04-29T14:23:35.675Z,63.94
2023-04-29T14:26:17.230Z,63.85
2023-04-29T14:28:47.859Z,63.86
2023-04-29T14:31:14.025Z,63.94
2023-04-29T14:33:40.179Z,64.03
2023-04-29T14:36:06.290Z,63.85
2023-04-29T14:38:32.396Z,63.77
2023-04-29T14:40:58.534Z,64.03
2023-04-29T14:43:24.655Z,63.95
2023-04-29T14:45:50.773Z,63.94
2023-04-29T14:48:16.920Z,63.79
2023-04-29T14:50:43.427Z,63.94
2023-04-29T14:53:09.503Z,63.82
2023-04-29T14:55:35.614Z,63.87
2023-04-29T14:58:01.733Z,64.07
2023-04-29T15:00:27.850Z,64.05
2023-04-29T15:02:54.001Z,63.84
2023-04-29T15:05:20.176Z,64.00
2023-04-29T15:07:46.280Z,63.89
2023-04-29T15:10:12.412Z,63.67
2023-04-29T15:12:38.523Z,63.66
2023-04-29T15:15:04.667Z,63.83
2023-04-29T15:17:30.852Z,63.88
2023-04-29T15:19:56.984Z,63.86
2023-04-29T15:22:23.083Z,63.84
2023-04-29T15:27:20.223Z,63.67
2023-04-29T15:29:46.313Z,63.82
2023-04-29T15:32:12.491Z,63.84
2023-04-29T15:34:38.632Z,63.81
2023-04-29T15:37:04.726Z,63.90
2023-04-29T15:39:30.829Z,63.80
2023-04-29T15:41:56.955Z,64.12
2023-04-29T15:44:23.052Z,63.88
2023-04-29T15:46:49.177Z,63.91
2023-04-29T15:49:15.303Z,63.88
2023-04-29T15:51:41.391Z,63.82
2023-04-29T15:54:07.495Z,63.89
2023-04-29T15:56:33.616Z,63.89
2023-04-29T15:58:59.704Z,64.10
2023-04-29T16:01:25.830Z,63.83
2023-04-29T16:03:52.002Z,63.80
2023-04-29T16:06:18.520Z,63.90
2023-04-29T16:08:44.949Z,63.85
2023-04-29T16:11:11.097Z,63.98
2023-04-29T16:13:37.234Z,63.97
2023-04-29T16:16:03.333Z,63.84
2023-04-29T16:18:29.567Z,63.85
2023-04-29T16:20:55.671Z,64.02
2023-04-29T16:23:23.014Z,63.84
2023-04-29T16:25:49.289Z,64.03
2023-04-29T16:28:15.405Z,63.87
2023-04-29T16:30:41.517Z,64.03
2023-04-29T16:33:07.645Z,63.93
2023-04-29T16:35:33.763Z,64.08
2023-04-29T16:37:59.886Z,64.08
2023-04-29T16:40:26.012Z,63.94
2023-04-29T16:42:52.682Z,64.11
2023-04-29T16:45:18.871Z,63.87
2023-04-29T16:47:45.649Z,64.07
2023-04-29T16:50:11.788Z,63.90
2023-04-29T16:52:37.946Z,63.87
2023-04-29T16:55:04.154Z,63.94
2023-04-29T16:57:30.285Z,63.92
2023-04-29T16:59:56.624Z,63.90
2023-04-29T17:02:24.273Z,63.97
2023-04-29T17:04:50.520Z,64.10
2023-04-29T17:07:16.723Z,63.92
2023-04-29T17:09:42.834Z,63.95
2023-04-29T17:12:08.930Z,64.10
2023-04-29T17:14:35.019Z,64.09
2023-04-29T17:17:01.129Z,63.93
2023-04-29T17:19:27.223Z,63.94
2023-04-29T17:21:53.316Z,64.03
2023-04-29T17:24:19.419Z,63.98
2023-04-29T17:26:45.546Z,63.98
2023-04-29T17:29:11.643Z,64.06
2023-04-29T17:31:38.321Z,64.00
2023-04-29T17:34:04.481Z,64.00
2023-04-29T17:36:30.593Z,63.92
2023-04-29T17:38:56.702Z,64.00
2023-04-29T17:41:22.799Z,63.98
2023-04-29T17:43:48.899Z,64.02
2023-04-29T17:46:15.066Z,64.18
2023-04-29T17:48:41.166Z,64.21
2023-04-29T17:51:07.279Z,63.99
2023-04-29T17:53:33.467Z,63.96
2023-04-29T17:55:59.592Z,64.01
2023-04-29T17:58:25.758Z,64.06
2023-04-29T18:00:51.906Z,63.96
2023-04-29T18:03:18.107Z,64.13
2023-04-29T18:05:44.256Z,64.11
2023-04-29T18:08:10.371Z,64.09
2023-04-29T18:10:36.467Z,64.25
2023-04-29T18:13:02.656Z,63.95
2023-04-29T18:15:28.779Z,63.95
2023-04-29T18:17:54.910Z,64.20
2023-04-29T18:20:21.042Z,64.05
2023-04-29T18:22:47.170Z,63.97
2023-04-29T18:25:13.285Z,64.05
2023-04-29T18:27:39.382Z,64.27
2023-04-29T18:30:05.506Z,64.25
2023-04-29T18:32:31.703Z,64.23
2023-04-29T18:34:57.825Z,64.06
2023-04-29T18:37:23.952Z,64.16
2023-04-29T18:39:50.086Z,64.20
2023-04-29T18:42:16.194Z,64.06
2023-04-29T18:44:42.337Z,64.11
2023-04-29T18:47:08.422Z,64.26
2023-04-29T18:49:36.500Z,64.12
2023-04-29T18:52:04.276Z,64.11
2023-04-29T18:54:30.461Z,64.02
2023-04-29T18:56:56.569Z,64.12
2023-04-29T18:59:22.678Z,64.03
2023-04-29T19:01:49.034Z,64.05
2023-04-29T19:04:15.337Z,64.05
2023-04-29T19:06:41.763Z,64.14
2023-04-29T19:09:08.067Z,64.04
2023-04-29T19:11:34.188Z,64.12
2023-04-29T19:14:00.350Z,64.26
2023-04-29T19:16:26.682Z,64.03
2023-04-29T19:18:52.871Z,64.15
2023-04-29T19:21:18.994Z,64.05
2023-04-29T19:23:45.109Z,64.06
2023-04-29T19:26:11.281Z,64.05
2023-04-29T19:28:37.403Z,64.10
2023-04-29T19:31:03.555Z,64.10
2023-04-29T19:33:29.672Z,64.03
2023-04-29T19:35:56.174Z,64.14
2023-04-29T19:38:22.495Z,64.22
2023-04-29T19:40:48.595Z,64.13
2023-04-29T19:43:14.778Z,64.36
2023-04-29T19:45:40.910Z,64.32
2023-04-29T19:48:07.103Z,64.11
2023-04-29T19:50:33.229Z,64.13
2023-04-29T19:52:59.307Z,64.29
2023-04-29T19:55:25.416Z,64.04
2023-04-29T19:57:52.027Z,64.26
2023-04-29T20:00:18.141Z,64.26
2023-04-29T20:02:44.433Z,64.14
2023-04-29T20:05:10.755Z,64.22
2023-04-29T20:07:36.870Z,64.15
2023-04-29T20:10:03.003Z,64.25
2023-04-29T20:12:29.116Z,64.10
2023-04-29T20:14:56.289Z,64.11
2023-04-29T20:17:22.423Z,64.18
2023-04-29T20:19:48.564Z,64.16
2023-04-29T20:22:14.851Z,64.19
2023-04-29T20:24:40.957Z,64.24
2023-04-29T20:27:07.085Z,64.24
2023-04-29T20:29:33.211Z,64.04
2023-04-29T20:31:59.352Z,64.09
2023-04-29T20:34:25.988Z,64.22
2023-04-29T20:36:52.101Z,64.17
2023-04-29T20:39:18.195Z,64.08
2023-04-29T20:41:44.337Z,64.07
2023-04-29T20:44:10.421Z,64.19
2023-04-29T20:46:36.544Z,64.23
2023-04-29T20:49:02.677Z,64.16
2023-04-29T20:51:28.794Z,64.09
2023-04-29T20:53:54.884Z,64.15
2023-04-29T20:56:21.018Z,64.25
2023-04-29T20:58:47.111Z,64.10
2023-04-29T21:01:13.262Z,64.04
2023-04-29T21:03:39.492Z,64.16
2023-04-29T21:06:05.633Z,64.18
2023-04-29T21:08:31.784Z,64.06
2023-04-29T21:10:57.906Z,64.09
2023-04-29T21:13:24.022Z,64.13
2023-04-29T21:15:50.153Z,64.44
2023-04-29T21:18:16.444Z,64.25
2023-04-29T21:20:42.585Z,64.19
2023-04-29T21:23:08.683Z,64.09
2023-04-29T21:25:34.813Z,64.26
2023-04-29T21:28:00.911Z,64.28
2023-04-29T21:30:27.015Z,64.11
2023-04-29T21:32:53.244Z,64.10
2023-04-29T21:35:19.430Z,64.18
2023-04-29T21:37:45.524Z,64.14
2023-04-29T21:40:11.627Z,64.21
2023-04-29T21:42:37.741Z,64.27
2023-04-29T21:45:03.855Z,64.23
2023-04-29T21:47:30.055Z,64.19
2023-04-29T21:49:56.450Z,64.42
2023-04-29T21:52:22.765Z,64.17
2023-04-29T21:54:48.888Z,64.15
2023-04-29T21:57:14.992Z,64.26
2023-04-29T21:59:41.109Z,64.18
2023-04-29T22:02:07.503Z,64.28
2023-04-29T22:04:33.639Z,64.17
2023-04-29T22:07:00.038Z,64.26
2023-04-29T22:09:26.204Z,64.20
2023-04-29T22:11:52.476Z,64.13
2023-04-29T22:14:18.576Z,64.21
2023-04-29T22:16:44.897Z,64.22
2023-04-29T22:19:11.125Z,64.25
2023-04-29T22:21:37.308Z,64.05
2023-04-29T22:24:03.469Z,64.34
2023-04-29T22:26:29.608Z,64.33
2023-04-29T22:28:59.062Z,64.18
2023-04-29T22:31:25.397Z,64.27
2023-04-29T22:33:51.641Z,64.23
2023-04-29T22:36:17.743Z,64.21
2023-04-29T22:38:43.896Z,64.38
2023-04-29T22:41:09.976Z,64.17
2023-04-29T22:43:36.061Z,64.46
2023-04-29T22:46:02.283Z,64.29
2023-04-29T22:48:28.383Z,64.24
2023-04-29T22:50:54.483Z,64.53
2023-04-29T22:53:20.614Z,64.19
2023-04-29T22:55:46.732Z,64.18
2023-04-29T22:58:12.848Z,64.37
2023-04-29T23:00:38.948Z,64.19
2023-04-29T23:03:05.071Z,64.21
2023-04-29T23:05:31.538Z,64.29
2023-04-29T23:07:57.656Z,64.27
2023-04-29T23:10:23.745Z,64.27
2023-04-29T23:12:49.845Z,64.33
2023-04-29T23:15:15.960Z,64.25
2023-04-29T23:17:42.086Z,64.30
2023-04-29T23:20:08.215Z,64.39
2023-04-29T23:22:34.328Z,64.50
2023-04-29T23:25:00.421Z,64.29
2023-04-29T23:27:26.537Z,64.48
2023-04-29T23:29:52.882Z,64.50
2023-04-29T23:32:19.187Z,64.36
2023-04-29T23:34:46.282Z,64.45
2023-04-29T23:37:12.741Z,64.45
2023-04-29T23:39:38.854Z,64.50
2023-04-29T23:42:04.982Z,64.28
2023-04-29T23:44:31.109Z,64.30
2023-04-29T23:46:57.319Z,64.52
2023-04-29T23:49:23.544Z,64.40
2023-04-29T23:51:49.722Z,64.53
2023-04-29T23:54:15.813Z,64.34
2023-04-29T23:56:41.970Z,64.32
2023-04-29T23:59:08.071Z,64.36
